Time;durP1;ratioP1;P1;durP2;ratioP2;P2;SDS_P1;SDS_P2;PMS_P1;PMS_P2;Temp;Humidity;BMP_temperature;BMP_pressure;BME280_temperature;BME280_humidity;BME280_pressure;Samples;Min_cycle;Max_cycle;Signal;HPM_P1;HPM_P2
2022/10/24 00:00:12;;;;;;;1.80;1.35;;;;;;;8.32;71.22;97176.88;5113648;28;20051;-61
2022/10/24 00:02:39;;;;;;;1.70;1.60;;;;;;;8.28;72.76;97180.44;5113524;28;20093;-61
2022/10/24 00:05:07;;;;;;;1.75;1.45;;;;;;;8.22;73.03;97173.59;5113389;28;20245;-61
2022/10/24 00:07:34;;;;;;;4.00;1.90;;;;;;;8.24;72.91;97174.41;5113419;28;20103;-61
2022/10/24 00:10:01;;;;;;;2.25;1.63;;;;;;;8.14;73.55;97165.91;5116476;28;20100;-60
2022/10/24 00:12:28;;;;;;;3.90;1.80;;;;;;;8.13;73.83;97168.53;5117547;28;20412;-61
2022/10/24 00:14:55;;;;;;;2.10;1.60;;;;;;;8.21;74.21;97161.41;5117760;28;20123;-60
2022/10/24 00:17:24;;;;;;;4.00;1.95;;;;;;;8.25;73.65;97168.28;5117515;28;20061;-61
2022/10/24 00:19:53;;;;;;;2.80;1.98;;;;;;;8.19;73.08;97156.22;5117535;28;20555;-61
2022/10/24 00:22:20;;;;;;;1.83;1.65;;;;;;;8.09;73.16;97147.75;5117113;28;20138;-61
2022/10/24 00:24:47;;;;;;;1.63;1.52;;;;;;;8.04;73.32;97152.16;5117301;28;20130;-60
2022/10/24 00:27:14;;;;;;;1.70;1.60;;;;;;;7.96;74.53;97146.25;5117441;27;20052;-60
2022/10/24 00:29:41;;;;;;;2.78;1.95;;;;;;;7.85;75.28;97143.81;5117398;28;20052;-60
2022/10/24 00:32:08;;;;;;;2.35;1.75;;;;;;;7.90;75.17;97154.16;5117426;28;20052;-60
2022/10/24 00:34:37;;;;;;;2.10;1.40;;;;;;;7.96;74.04;97154.94;5117097;28;20489;-60
2022/10/24 00:37:05;;;;;;;2.78;1.63;;;;;;;7.98;74.12;97154.91;5117351;28;20050;-61
2022/10/24 00:39:32;;;;;;;1.77;1.35;;;;;;;7.99;73.97;97155.75;5117359;27;20394;-60
2022/10/24 00:41:59;;;;;;;2.35;1.85;;;;;;;8.02;74.73;97153.09;5116987;28;20125;-61
2022/10/24 00:44:29;;;;;;;4.18;2.00;;;;;;;8.01;74.86;97153.97;5116925;28;20443;-60
2022/10/24 00:46:59;;;;;;;3.20;2.03;;;;;;;8.05;74.92;97145.22;5116956;28;20040;-61
2022/10/24 00:49:31;;;;;;;3.97;2.00;;;;;;;8.05;74.86;97142.59;5117139;28;20090;-61
2022/10/24 00:52:04;;;;;;;1.90;1.75;;;;;;;8.07;74.77;97146.06;5116757;28;20132;-60
2022/10/24 00:54:31;;;;;;;2.90;1.67;;;;;;;8.05;74.18;97153.91;5116772;28;20043;-60
2022/10/24 00:57:06;;;;;;;2.10;1.85;;;;;;;8.03;74.24;97146.97;5116760;28;20108;-60
2022/10/24 00:59:36;;;;;;;1.85;1.70;;;;;;;8.01;74.03;97148.78;5116702;28;20075;-60
2022/10/24 01:02:03;;;;;;;2.45;1.65;;;;;;;7.97;74.70;97146.22;5116605;28;20397;-60
2022/10/24 01:04:30;;;;;;;2.15;1.80;;;;;;;7.96;74.68;97143.63;5116691;28;20083;-60
2022/10/24 01:07:11;;;;;;;3.33;2.20;;;;;;;7.87;75.51;97149.88;5116542;28;20116;-60
2022/10/24 01:09:59;;;;;;;3.17;2.38;;;;;;;7.85;76.00;97143.81;5116579;28;20054;-60
2022/10/24 01:12:38;;;;;;;3.45;2.20;;;;;;;7.86;75.51;97144.69;5116473;28;20404;-61
2022/10/24 01:15:16;;;;;;;3.55;1.98;;;;;;;7.84;75.67;97139.50;5116558;28;20075;-60
2022/10/24 01:17:52;;;;;;;4.50;2.20;;;;;;;7.84;75.44;97144.72;5116356;28;20058;-61
2022/10/24 01:20:51;;;;;;;4.00;2.13;;;;;;;7.78;75.26;97148.28;5115821;28;20113;-61
2022/10/24 01:23:40;;;;;;;3.67;2.45;;;;;;;7.75;75.78;97142.25;5116103;28;20106;-60
2022/10/24 01:26:35;;;;;;;3.78;2.80;;;;;;;7.63;76.79;97144.19;5116278;28;20039;-60
2022/10/24 01:29:08;;;;;;;7.93;3.08;;;;;;;7.65;77.43;97144.16;5116211;27;20448;-60
2022/10/24 01:31:45;;;;;;;5.60;2.88;;;;;;;7.72;76.85;97140.56;5116090;28;20109;-60
2022/10/24 01:34:18;;;;;;;3.38;2.72;;;;;;;7.71;77.05;97151.88;5116360;28;20097;-60
2022/10/24 01:36:51;;;;;;;3.90;2.47;;;;;;;7.74;77.26;97146.63;5116233;28;20489;-60
2022/10/24 01:39:24;;;;;;;3.47;2.50;;;;;;;7.78;76.93;97145.69;5116002;28;20408;-60
2022/10/24 01:41:54;;;;;;;6.93;2.65;;;;;;;7.81;76.62;97144.75;5115896;28;20066;-60
2022/10/24 01:44:27;;;;;;;3.72;2.22;;;;;;;7.82;76.48;97139.53;5115895;28;20142;-60
2022/10/24 01:47:02;;;;;;;5.53;2.10;;;;;;;7.79;76.64;97136.97;5115903;28;20116;-60
2022/10/24 01:49:33;;;;;;;2.45;2.20;;;;;;;7.78;76.58;97130.06;5116006;28;20047;-61
2022/10/24 01:52:04;;;;;;;3.92;2.38;;;;;;;7.81;76.87;97121.31;5115745;27;20040;-60
2022/10/24 01:54:32;;;;;;;4.00;2.50;;;;;;;7.80;76.81;97117.84;5115851;28;20051;-61
2022/10/24 01:56:59;;;;;;;3.25;2.30;;;;;;;7.81;76.95;97123.94;5115945;28;20051;-60
2022/10/24 01:59:46;;;;;;;2.97;2.22;;;;;;;7.85;76.88;97125.59;5115816;28;20051;-60
2022/10/24 02:02:19;;;;;;;2.85;2.28;;;;;;;7.84;77.11;97124.75;5115476;28;20044;-61
2022/10/24 02:04:51;;;;;;;4.18;2.35;;;;;;;7.80;77.09;97117.84;5115550;28;20130;-61
2022/10/24 02:07:21;;;;;;;3.17;2.40;;;;;;;7.84;77.58;97127.34;5115297;28;20092;-60
2022/10/24 02:09:54;;;;;;;7.82;2.28;;;;;;;7.88;77.54;97124.66;5115329;28;20047;-60
2022/10/24 02:12:23;;;;;;;2.63;2.20;;;;;;;7.88;77.66;97119.44;5115275;28;20519;-61
2022/10/24 02:14:55;;;;;;;3.30;1.92;;;;;;;7.92;77.40;97124.56;5115190;28;20096;-61
2022/10/24 02:17:24;;;;;;;6.03;2.47;;;;;;;7.89;77.75;97126.41;5115227;28;20100;-61
2022/10/24 02:19:51;;;;;;;3.50;2.55;;;;;;;7.88;78.16;97125.53;5115115;28;20043;-61
2022/10/24 02:22:26;;;;;;;4.90;2.65;;;;;;;7.88;77.82;97115.09;5114821;28;20055;-61
2022/10/24 02:24:58;;;;;;;3.53;2.40;;;;;;;7.88;77.13;97128.13;5115043;28;20051;-61
2022/10/24 02:27:31;;;;;;;5.18;2.67;;;;;;;7.86;77.36;97123.84;5114997;28;20120;-61
2022/10/24 02:30:03;;;;;;;4.15;2.53;;;;;;;7.76;77.74;97126.59;5114925;28;20047;-62
2022/10/24 02:32:34;;;;;;;2.13;1.83;;;;;;;7.77;77.89;97123.09;5114315;28;20078;-61
2022/10/24 02:35:04;;;;;;;2.90;2.30;;;;;;;7.72;77.42;97124.94;5115079;28;20043;-61
2022/10/24 02:37:33;;;;;;;5.93;2.17;;;;;;;7.75;77.90;97124.03;5114825;28;20054;-61
2022/10/24 02:40:03;;;;;;;3.20;1.77;;;;;;;7.73;78.80;97128.41;5114819;28;20044;-62
2022/10/24 02:42:31;;;;;;;2.58;2.05;;;;;;;7.73;78.72;97133.63;5114553;28;20101;-62
2022/10/24 02:44:59;;;;;;;2.35;2.15;;;;;;;7.72;78.82;97135.38;5114861;28;20104;-62
2022/10/24 02:47:28;;;;;;;2.63;2.20;;;;;;;7.65;79.69;97138.97;5114541;28;20126;-62
2022/10/24 02:49:57;;;;;;;6.97;1.95;;;;;;;7.62;79.97;97134.66;5114715;28;20100;-63
2022/10/24 02:52:25;;;;;;;2.70;2.22;;;;;;;7.65;79.22;97133.75;5114411;28;20093;-62
2022/10/24 02:54:52;;;;;;;2.60;2.17;;;;;;;7.67;79.22;97134.56;5114351;28;20071;-61
2022/10/24 02:57:20;;;;;;;2.70;2.10;;;;;;;7.65;79.08;97137.19;5114409;28;20374;-61
2022/10/24 02:59:47;;;;;;;3.45;2.30;;;;;;;7.68;78.37;97133.69;5114346;28;20504;-61
2022/10/24 03:02:15;;;;;;;3.17;2.42;;;;;;;7.74;78.03;97130.13;5114233;28;20126;-61
2022/10/24 03:04:42;;;;;;;2.80;2.22;;;;;;;7.70;78.27;97126.69;5114117;28;20134;-61
2022/10/24 03:07:11;;;;;;;3.20;2.03;;;;;;;7.67;78.60;97129.34;5114153;28;20131;-61
2022/10/24 03:09:38;;;;;;;2.92;1.80;;;;;;;7.70;78.61;97132.78;5114115;28;20089;-61
2022/10/24 03:12:06;;;;;;;2.28;2.03;;;;;;;7.72;78.86;97127.56;5114242;28;20108;-62
2022/10/24 03:14:33;;;;;;;3.38;2.17;;;;;;;7.73;78.71;97126.66;5114051;28;20122;-61
2022/10/24 03:17:01;;;;;;;1.73;1.63;;;;;;;7.62;78.74;97116.44;5113989;28;20050;-61
2022/10/24 03:19:29;;;;;;;2.03;1.75;;;;;;;7.69;79.36;97125.00;5114121;28;20055;-61
2022/10/24 03:21:56;;;;;;;2.50;2.20;;;;;;;7.71;78.95;97129.28;5114111;28;20104;-61
2022/10/24 03:24:25;;;;;;;2.40;2.10;;;;;;;7.73;78.66;97126.66;5113948;28;20492;-61
2022/10/24 03:26:52;;;;;;;2.95;1.83;;;;;;;7.75;78.77;97129.22;5113804;28;20067;-61
2022/10/24 03:29:19;;;;;;;2.75;2.38;;;;;;;7.72;79.07;97122.34;5113830;28;20083;-61
2022/10/24 03:31:47;;;;;;;5.45;1.92;;;;;;;7.69;78.76;97125.88;5113765;28;20497;-61
2022/10/24 03:34:14;;;;;;;7.25;2.08;;;;;;;7.68;78.55;97120.69;5113762;28;20127;-61
2022/10/24 03:36:41;;;;;;;4.03;2.08;;;;;;;7.66;78.62;97125.03;5113931;28;20055;-61
2022/10/24 03:39:09;;;;;;;2.47;2.17;;;;;;;7.57;79.44;97119.13;5113701;28;20082;-61
2022/10/24 03:41:38;;;;;;;7.35;2.25;;;;;;;7.51;79.60;97116.63;5113770;28;20481;-61
2022/10/24 03:44:05;;;;;;;2.67;2.35;;;;;;;7.50;79.78;97127.91;5112771;28;20069;-61
2022/10/24 03:46:32;;;;;;;6.18;2.80;;;;;;;7.56;79.39;97126.97;5113899;28;20052;-61
2022/10/24 03:49:00;;;;;;;1.67;1.58;;;;;;;7.58;78.78;97127.78;5113736;28;20062;-61
2022/10/24 03:51:27;;;;;;;3.90;1.77;;;;;;;7.58;78.22;97132.97;5113494;28;20413;-61
2022/10/24 03:53:54;;;;;;;3.35;2.45;;;;;;;7.49;79.06;97135.75;5113606;28;20048;-62
2022/10/24 03:56:21;;;;;;;6.55;1.90;;;;;;;7.49;79.23;97122.75;5113796;28;20370;-61
2022/10/24 03:58:50;;;;;;;3.40;2.00;;;;;;;7.48;79.01;97121.00;5113702;28;20044;-62
2022/10/24 04:01:18;;;;;;;3.40;1.92;;;;;;;7.51;78.71;97126.16;5113510;28;20493;-61
2022/10/24 04:03:45;;;;;;;2.75;1.60;;;;;;;7.49;78.69;97122.75;5113406;28;20051;-61
2022/10/24 04:06:13;;;;;;;2.05;1.80;;;;;;;7.41;79.37;97115.88;5113499;28;20051;-61
2022/10/24 04:08:40;;;;;;;3.22;1.80;;;;;;;7.30;80.09;97121.28;5113445;28;20044;-62
2022/10/24 04:11:08;;;;;;;2.38;2.03;;;;;;;7.34;79.54;97114.28;5113501;28;20043;-61
2022/10/24 04:13:35;;;;;;;2.95;2.20;;;;;;;7.37;79.02;97108.19;5113484;28;20147;-62
2022/10/24 04:16:04;;;;;;;3.60;1.90;;;;;;;7.37;79.69;97105.56;5113309;28;20112;-61
2022/10/24 04:18:32;;;;;;;3.58;1.88;;;;;;;7.31;79.65;97109.09;5113219;28;20055;-62
2022/10/24 04:20:59;;;;;;;1.70;1.60;;;;;;;7.30;79.60;97118.69;5112908;28;20051;-61
2022/10/24 04:23:26;;;;;;;2.33;1.75;;;;;;;7.28;79.54;97115.22;5113554;28;20408;-61
2022/10/24 04:25:54;;;;;;;2.97;1.58;;;;;;;7.31;79.91;97115.19;5113331;28;20043;-61
2022/10/24 04:28:21;;;;;;;3.53;1.50;;;;;;;7.28;79.86;97116.97;5113216;28;20100;-61
2022/10/24 04:30:55;;;;;;;1.95;1.67;;;;;;;7.33;79.37;97108.22;5113188;28;20047;-61
2022/10/24 04:33:24;;;;;;;1.58;1.48;;;;;;;7.28;79.49;97101.34;5113379;28;20426;-61
2022/10/24 04:35:52;;;;;;;2.70;1.67;;;;;;;7.25;79.21;97104.88;5113122;28;20050;-61
2022/10/24 04:38:20;;;;;;;3.58;2.05;;;;;;;7.23;79.16;97097.97;5113375;28;20051;-61
2022/10/24 04:40:51;;;;;;;2.03;1.60;;;;;;;7.25;79.26;97102.25;5113091;28;20105;-61
2022/10/24 04:43:18;;;;;;;;;;;;;;;7.29;78.43;97095.28;5113503;28;20054;-61
2022/10/24 04:45:46;;;;;;;1.65;1.55;;;;;;;7.24;79.33;97103.16;5113215;28;19955;-61
2022/10/24 04:48:15;;;;;;;1.88;1.67;;;;;;;7.20;79.94;97094.53;5113124;28;20123;-60
2022/10/24 04:50:46;;;;;;;3.30;1.50;;;;;;;7.26;80.50;97104.00;5113032;28;20050;-61
2022/10/24 04:53:14;;;;;;;3.13;2.03;;;;;;;7.30;79.91;97115.22;5112981;28;20054;-61
2022/10/24 04:55:41;;;;;;;4.78;1.73;;;;;;;7.31;80.26;97109.09;5115088;28;20120;-61
2022/10/24 04:58:08;;;;;;;3.15;1.90;;;;;;;7.36;80.32;97111.63;5116861;28;20452;-61
2022/10/24 05:00:35;;;;;;;2.67;1.85;;;;;;;7.42;80.28;97108.94;5116702;28;20086;-61
2022/10/24 05:03:05;;;;;;;2.15;1.60;;;;;;;7.51;80.19;97116.63;5116751;28;20048;-61
2022/10/24 05:05:32;;;;;;;2.92;2.20;;;;;;;7.57;79.73;97113.91;5116618;28;20409;-60
2022/10/24 05:08:00;;;;;;;2.40;1.77;;;;;;;7.64;81.01;97119.00;5116450;28;20488;-61
2022/10/24 05:10:29;;;;;;;3.30;2.03;;;;;;;7.66;80.49;97125.91;5116497;28;20093;-61
2022/10/24 05:12:56;;;;;;;3.00;2.00;;;;;;;7.73;79.86;97131.88;5116407;28;20439;-62
2022/10/24 05:15:23;;;;;;;3.67;2.03;;;;;;;7.82;79.67;97142.13;5116773;28;20051;-61
2022/10/24 05:17:51;;;;;;;3.00;1.90;;;;;;;7.88;79.39;97135.94;5116434;28;20044;-61
2022/10/24 05:20:18;;;;;;;5.85;2.42;;;;;;;8.00;79.79;97136.63;5116104;28;20047;-62
2022/10/24 05:22:45;;;;;;;6.82;2.55;;;;;;;8.96;78.26;97129.53;5116308;28;20040;-61
2022/10/24 05:25:14;;;;;;;4.53;1.98;;;;;;;10.34;73.44;97134.88;5116164;28;20047;-61
2022/10/24 05:27:42;;;;;;;3.65;1.50;;;;;;;11.69;67.99;97131.75;5116274;28;20481;-61
2022/10/24 05:30:10;;;;;;;2.00;1.45;;;;;;;12.94;62.85;97135.28;5116134;28;20043;-61
2022/10/24 05:32:39;;;;;;;2.92;1.55;;;;;;;14.24;58.11;97132.75;5116046;28;20079;-61
2022/10/24 05:35:07;;;;;;;4.15;1.08;;;;;;;15.34;54.57;97137.50;5116058;28;20040;-61
2022/10/24 05:37:35;;;;;;;1.75;1.52;;;;;;;16.43;51.45;97131.25;5116113;28;20086;-61
2022/10/24 05:40:02;;;;;;;2.72;1.38;;;;;;;17.40;48.91;97129.59;5116139;28;20071;-60
2022/10/24 05:42:32;;;;;;;2.80;1.20;;;;;;;18.42;46.53;97134.38;5115778;28;20047;-60
2022/10/24 05:45:00;;;;;;;3.45;1.25;;;;;;;19.30;42.93;97124.63;5115673;28;20064;-60
2022/10/24 05:47:28;;;;;;;1.48;1.20;;;;;;;20.07;42.45;97126.69;5115786;28;20050;-61
2022/10/24 05:49:55;;;;;;;2.30;1.45;;;;;;;20.79;40.86;97127.13;5115847;28;20044;-60
2022/10/24 05:52:24;;;;;;;1.35;1.13;;;;;;;21.45;39.74;97130.50;5115919;28;20047;-61
2022/10/24 05:54:52;;;;;;;2.97;1.38;;;;;;;22.01;38.40;97139.75;5116030;28;20597;-60
2022/10/24 05:57:19;;;;;;;1.27;1.00;;;;;;;22.46;37.81;97138.97;5115607;27;20477;-61
2022/10/24 05:59:48;;;;;;;1.92;0.90;;;;;;;23.25;36.15;97141.81;5115537;28;20048;-60
2022/10/24 06:02:18;;;;;;;1.27;1.02;;;;;;;24.15;35.01;97144.38;5115652;28;20057;-60
2022/10/24 06:04:45;;;;;;;;;;;;;;;24.93;33.46;97145.84;5115864;28;20048;-60
2022/10/24 06:07:13;;;;;;;1.27;1.00;;;;;;;25.70;32.46;97148.00;5114440;28;19920;-60
2022/10/24 06:09:42;;;;;;;0.98;0.80;;;;;;;26.35;31.09;97149.31;5115434;28;20048;-61
2022/10/24 06:12:10;;;;;;;1.67;0.98;;;;;;;26.69;30.52;97153.31;5115410;28;20083;-59
2022/10/24 06:14:38;;;;;;;1.23;1.13;;;;;;;27.08;30.61;97152.34;5115327;28;20048;-59
2022/10/24 06:17:08;;;;;;;1.15;1.00;;;;;;;27.61;29.93;97159.84;5115301;28;20048;-60
2022/10/24 06:19:36;;;;;;;1.38;1.15;;;;;;;28.23;28.71;97148.34;5115201;28;20048;-60
2022/10/24 06:22:03;;;;;;;1.48;1.10;;;;;;;28.56;28.72;97150.44;5115335;28;20560;-60
2022/10/24 06:24:31;;;;;;;1.27;1.00;;;;;;;28.93;27.86;97156.59;5114899;28;20052;-60
2022/10/24 06:26:58;;;;;;;0.70;0.70;;;;;;;29.11;27.81;97156.50;5115562;28;20048;-61
2022/10/24 06:29:25;;;;;;;1.30;1.20;;;;;;;29.53;26.65;97148.56;5115055;28;20052;-60
2022/10/24 06:31:52;;;;;;;3.05;1.10;;;;;;;30.04;26.36;97153.06;5114839;28;20100;-60
2022/10/24 06:34:21;;;;;;;1.15;1.05;;;;;;;30.60;26.16;97152.38;5114842;28;20044;-60
2022/10/24 06:36:49;;;;;;;1.40;1.10;;;;;;;31.12;25.12;97152.09;5114909;28;20051;-60
2022/10/24 06:39:16;;;;;;;1.17;0.95;;;;;;;31.45;25.46;97161.94;5114943;28;20104;-61
2022/10/24 06:41:43;;;;;;;2.60;1.20;;;;;;;31.49;24.34;97157.88;5114726;28;20051;-60
2022/10/24 06:44:10;;;;;;;1.48;1.20;;;;;;;31.73;22.27;97156.03;5114827;28;20043;-60
2022/10/24 06:46:38;;;;;;;2.13;1.33;;;;;;;31.84;22.57;97155.63;5114895;28;20138;-61
2022/10/24 06:49:06;;;;;;;1.25;1.10;;;;;;;31.56;22.45;97155.28;5114599;28;20047;-60
2022/10/24 06:51:35;;;;;;;4.50;1.20;;;;;;;31.40;22.84;97159.78;5114545;28;20043;-60
2022/10/24 06:54:02;;;;;;;1.63;1.02;;;;;;;31.56;22.66;97152.59;5114572;27;20051;-61
2022/10/24 06:56:29;;;;;;;1.23;1.13;;;;;;;31.74;23.21;97150.47;5114671;28;20085;-60
2022/10/24 06:58:56;;;;;;;1.08;0.98;;;;;;;31.90;23.18;97159.47;5114460;28;20058;-61
2022/10/24 07:01:26;;;;;;;1.15;1.05;;;;;;;32.14;21.46;97144.94;5114489;28;20039;-61
2022/10/24 07:03:55;;;;;;;1.08;0.95;;;;;;;32.31;21.58;97150.22;5114190;28;20122;-60
2022/10/24 07:06:24;;;;;;;1.00;0.90;;;;;;;32.26;21.20;97145.34;5114196;28;20105;-60
2022/10/24 07:08:54;;;;;;;1.23;0.95;;;;;;;32.52;22.71;97137.88;5114305;28;20044;-60
2022/10/24 07:11:21;;;;;;;1.00;1.00;;;;;;;33.09;21.08;97146.44;5114288;28;20100;-60
2022/10/24 07:13:50;;;;;;;0.93;0.80;;;;;;;33.65;20.51;97144.22;5114361;28;20048;-61
2022/10/24 07:16:19;;;;;;;1.10;1.00;;;;;;;33.86;21.14;97134.41;5114125;28;20051;-61
2022/10/24 07:18:46;;;;;;;0.73;0.73;;;;;;;33.96;21.29;97147.66;5113958;27;20047;-60
2022/10/24 07:21:15;;;;;;;3.08;1.30;;;;;;;34.04;20.29;97142.13;5113895;27;20493;-61
2022/10/24 07:23:43;;;;;;;1.88;1.63;;;;;;;34.13;19.62;97140.13;5114054;28;20134;-61
2022/10/24 07:26:14;;;;;;;1.33;0.73;;;;;;;34.49;19.44;97147.28;5114242;28;20048;-61
2022/10/24 07:28:45;;;;;;;2.10;1.00;;;;;;;34.96;19.01;97143.22;5114232;28;20055;-61
2022/10/24 07:31:13;;;;;;;1.05;0.90;;;;;;;35.03;17.97;97153.09;5114183;28;20048;-61
2022/10/24 07:33:41;;;;;;;1.20;1.02;;;;;;;34.83;18.58;97154.88;5113795;28;20050;-61
2022/10/24 07:36:10;;;;;;;3.05;1.00;;;;;;;35.15;17.78;97155.25;5113893;27;20051;-61
2022/10/24 07:38:37;;;;;;;1.50;0.90;;;;;;;35.25;17.53;97157.63;5114041;28;20101;-61
2022/10/24 07:41:05;;;;;;;1.75;1.08;;;;;;;35.13;18.29;97150.03;5113918;28;20047;-61
2022/10/24 07:43:34;;;;;;;1.52;1.20;;;;;;;34.75;18.66;97150.44;5113747;28;20052;-61
2022/10/24 07:46:07;;;;;;;1.35;1.08;;;;;;;34.08;19.38;97148.81;5113678;28;20056;-61
2022/10/24 07:48:34;;;;;;;1.55;1.00;;;;;;;33.36;19.77;97144.06;5113810;28;20047;-61
2022/10/24 07:51:05;;;;;;;0.80;0.80;;;;;;;32.46;21.14;97133.19;5113702;28;20082;-61
2022/10/24 07:53:33;;;;;;;0.98;0.90;;;;;;;31.56;22.04;97142.63;5113744;28;20065;-61
2022/10/24 07:56:01;;;;;;;1.40;1.10;;;;;;;30.60;23.59;97148.81;5113795;28;20051;-61
2022/10/24 07:58:29;;;;;;;2.45;1.35;;;;;;;30.21;24.21;97142.28;5113536;28;20052;-61
2022/10/24 08:01:03;;;;;;;1.35;1.25;;;;;;;29.64;23.94;97150.13;5113561;28;20044;-61
2022/10/24 08:03:30;;;;;;;1.90;1.67;;;;;;;29.16;24.81;97149.78;5113472;28;20100;-61
2022/10/24 08:05:57;;;;;;;1.48;1.38;;;;;;;28.75;25.12;97141.31;5113512;28;20051;-60
2022/10/24 08:08:25;;;;;;;2.47;1.27;;;;;;;28.31;25.12;97139.53;5113454;28;20065;-61
2022/10/24 08:10:52;;;;;;;1.38;1.27;;;;;;;27.86;25.69;97144.84;5113446;28;20047;-61
2022/10/24 08:13:19;;;;;;;1.30;1.20;;;;;;;27.31;26.84;97143.91;5113424;28;20574;-61
2022/10/24 08:15:46;;;;;;;2.00;1.65;;;;;;;26.98;27.37;97144.34;5113362;28;20539;-60
2022/10/24 08:18:15;;;;;;;1.30;1.20;;;;;;;26.81;27.09;97137.03;5113304;28;20047;-61
2022/10/24 08:20:42;;;;;;;1.75;1.40;;;;;;;26.65;27.26;97137.66;5113260;28;20142;-61
2022/10/24 08:23:09;;;;;;;1.60;1.27;;;;;;;26.35;28.00;97137.72;5113343;28;20124;-61
2022/10/24 08:25:40;;;;;;;2.50;1.20;;;;;;;26.27;28.43;97137.56;5113307;28;20047;-61
2022/10/24 08:28:08;;;;;;;1.27;1.17;;;;;;;26.20;28.38;97135.47;5113270;28;20065;-61
2022/10/24 08:30:35;;;;;;;1.55;1.23;;;;;;;26.02;29.11;97138.00;5115845;28;20070;-61
2022/10/24 08:33:02;;;;;;;1.83;1.40;;;;;;;25.99;28.82;97141.81;5117240;28;20481;-61
2022/10/24 08:35:31;;;;;;;1.50;1.40;;;;;;;25.98;29.14;97142.78;5117255;28;20043;-61
2022/10/24 08:38:00;;;;;;;1.20;1.10;;;;;;;26.06;29.13;97141.25;5117213;28;20047;-61
2022/10/24 08:40:27;;;;;;;1.75;1.08;;;;;;;26.02;28.91;97129.13;5117191;27;20140;-61
2022/10/24 08:42:55;;;;;;;1.92;1.20;;;;;;;26.02;29.28;97132.66;5117040;28;20443;-61
2022/10/24 08:45:29;;;;;;;1.25;1.00;;;;;;;25.98;29.66;97125.91;5116909;28;20052;-61
2022/10/24 08:48:05;;;;;;;1.70;1.60;;;;;;;25.90;29.87;97128.41;5117006;28;20087;-61
2022/10/24 08:50:35;;;;;;;1.70;1.20;;;;;;;25.74;30.27;97122.63;5117018;28;20134;-61
2022/10/24 08:53:06;;;;;;;2.17;1.17;;;;;;;25.85;30.17;97123.47;5116985;28;20087;-61
2022/10/24 08:55:39;;;;;;;2.88;1.50;;;;;;;25.82;30.26;97121.94;5116875;28;20048;-60
2022/10/24 08:58:12;;;;;;;2.03;1.50;;;;;;;25.79;30.27;97118.72;5116855;28;20044;-60
2022/10/24 09:00:42;;;;;;;1.63;1.20;;;;;;;25.80;30.21;97115.03;5116948;28;20462;-61
2022/10/24 09:03:16;;;;;;;1.30;1.17;;;;;;;25.68;30.42;97109.81;5116717;28;20055;-60
2022/10/24 09:05:49;;;;;;;18.17;16.90;;;;;;;25.42;29.89;97109.47;5116614;28;20054;-60
2022/10/24 09:08:24;;;;;;;2.33;1.58;;;;;;;25.29;30.69;97105.22;5116559;28;20058;-61
2022/10/24 09:10:57;;;;;;;3.45;1.60;;;;;;;25.26;30.19;97104.66;5116587;28;20054;-61
2022/10/24 09:13:26;;;;;;;1.65;1.55;;;;;;;25.36;31.24;97101.03;5116530;28;20050;-60
2022/10/24 09:15:54;;;;;;;2.72;1.83;;;;;;;25.42;30.65;97099.59;5116612;28;20047;-61
2022/10/24 09:18:24;;;;;;;2.85;1.70;;;;;;;25.43;30.93;97105.81;5116818;28;20039;-61
2022/10/24 09:20:53;;;;;;;3.28;1.90;;;;;;;25.45;31.27;97098.47;5116152;28;20046;-60
2022/10/24 09:23:23;;;;;;;2.22;1.77;;;;;;;25.39;29.94;97086.50;5116357;28;20075;-60
2022/10/24 09:25:54;;;;;;;2.70;1.83;;;;;;;25.32;31.10;97096.06;5116245;28;20073;-60
2022/10/24 09:28:22;;;;;;;2.58;1.70;;;;;;;24.97;30.25;97085.72;5116234;28;20062;-60
2022/10/24 09:30:50;;;;;;;2.75;1.80;;;;;;;24.95;31.51;97082.31;5116207;28;20134;-60
2022/10/24 09:33:26;;;;;;;2.60;1.60;;;;;;;25.02;30.91;97082.63;5116131;28;20402;-61
2022/10/24 09:35:59;;;;;;;2.55;1.80;;;;;;;25.12;30.93;97082.66;5116144;28;20089;-60
2022/10/24 09:38:31;;;;;;;2.50;1.50;;;;;;;25.13;31.26;97087.00;5116111;28;20097;-60
2022/10/24 09:41:02;;;;;;;54.17;28.58;;;;;;;25.18;30.41;97082.09;5115844;28;20039;-60
2022/10/24 09:43:41;;;;;;;1.77;1.60;;;;;;;25.28;30.76;97081.28;5116022;28;20413;-60
2022/10/24 09:46:10;;;;;;;2.58;1.88;;;;;;;25.32;30.57;97082.69;5115852;27;20051;-61
2022/10/24 09:48:48;;;;;;;1.95;1.42;;;;;;;24.87;30.51;97071.47;5115934;28;20082;-60
2022/10/24 09:51:25;;;;;;;2.58;1.55;;;;;;;24.98;32.13;97074.03;5115781;28;20075;-60
2022/10/24 09:54:25;;;;;;;2.92;1.63;;;;;;;24.89;31.18;97063.31;5115713;28;20507;-60
2022/10/24 09:56:56;;;;;;;3.50;1.88;;;;;;;24.58;30.55;97067.66;5115713;28;20113;-60
2022/10/24 09:59:48;;;;;;;2.58;1.42;;;;;;;24.49;31.72;97060.44;5115613;28;20044;-60
2022/10/24 10:02:23;;;;;;;2.35;1.70;;;;;;;24.59;31.88;97058.66;5095994;28;20489;-60
2022/10/24 10:05:17;;;;;;;2.00;1.65;;;;;;;24.63;32.27;97051.22;5115396;28;20281;-60
2022/10/24 10:07:47;;;;;;;2.08;1.73;;;;;;;24.58;30.79;97061.47;5115509;28;20092;-61
2022/10/24 10:10:36;;;;;;;1.95;1.48;;;;;;;24.40;31.58;97050.53;5115459;28;20051;-60
2022/10/24 10:13:11;;;;;;;7.10;6.03;;;;;;;24.42;31.10;97045.91;5109565;28;20055;-60
2022/10/24 10:15:44;;;;;;;2.20;1.50;;;;;;;24.43;32.20;97053.81;5115267;28;20104;-60
2022/10/24 10:18:24;;;;;;;5.70;1.85;;;;;;;24.35;32.49;97043.78;5115427;28;20086;-60
2022/10/24 10:21:06;;;;;;;4.50;2.87;;;;;;;24.51;31.31;97044.25;5114800;28;20098;-59
2022/10/24 10:23:37;;;;;;;2.63;1.70;;;;;;;24.54;31.40;97044.84;5115166;28;20048;-60
2022/10/24 10:26:14;;;;;;;2.05;1.27;;;;;;;24.62;31.41;97038.81;5114997;28;20047;-60
2022/10/24 10:28:58;;;;;;;2.67;1.50;;;;;;;24.61;31.59;97037.13;5114939;28;20122;-60
2022/10/24 10:31:33;;;;;;;1.10;0.98;;;;;;;24.76;31.87;97031.41;5114941;28;20105;-60
2022/10/24 10:34:16;;;;;;;3.03;1.35;;;;;;;24.80;31.12;97031.00;5114832;28;20124;-60
2022/10/24 10:36:56;;;;;;;1.58;1.30;;;;;;;24.72;31.55;97034.34;5114966;28;20378;-60
2022/10/24 10:39:47;;;;;;;3.10;1.33;;;;;;;24.72;31.71;97029.00;5114867;28;20168;-60
2022/10/24 10:42:21;;;;;;;1.80;1.50;;;;;;;24.71;31.04;97024.63;5114828;28;20506;-60
2022/10/24 10:45:03;;;;;;;2.35;1.75;;;;;;;24.80;31.99;97027.50;5114746;28;20054;-60
2022/10/24 10:47:45;;;;;;;1.88;1.20;;;;;;;24.75;31.20;97025.22;5114729;28;20134;-60
2022/10/24 10:50:35;;;;;;;1.95;1.55;;;;;;;24.80;32.21;97016.78;5114648;28;20518;-60
2022/10/24 10:53:17;;;;;;;2.70;1.50;;;;;;;24.78;31.82;97024.09;5114085;28;20140;-59
2022/10/24 10:55:57;;;;;;;3.22;1.67;;;;;;;24.68;31.30;97018.72;5114617;28;20052;-60
2022/10/24 10:58:39;;;;;;;4.50;1.33;;;;;;;24.59;31.28;97009.69;5114530;28;20394;-60
2022/10/24 11:01:14;;;;;;;1.60;1.30;;;;;;;24.57;32.35;97006.31;5114609;28;20043;-60
2022/10/24 11:03:49;;;;;;;1.45;1.35;;;;;;;24.52;31.19;97008.53;5114417;28;20044;-60
2022/10/24 11:06:34;;;;;;;2.90;1.30;;;;;;;24.48;32.27;97002.63;5114278;28;20066;-60
2022/10/24 11:09:19;;;;;;;2.25;1.38;;;;;;;24.23;32.61;97002.09;5114287;28;20060;-60
2022/10/24 11:11:52;;;;;;;2.20;1.30;;;;;;;24.25;32.40;97002.78;5114261;28;20052;-59
2022/10/24 11:14:28;;;;;;;3.70;1.67;;;;;;;24.40;32.49;96992.59;5114112;28;20096;-60
2022/10/24 11:17:01;;;;;;;2.58;1.20;;;;;;;24.42;32.36;96993.31;5114391;28;20500;-60
2022/10/24 11:19:34;;;;;;;3.05;1.10;;;;;;;24.53;31.52;96988.84;5114233;28;20048;-60
2022/10/24 11:22:04;;;;;;;2.85;1.27;;;;;;;24.62;31.53;96980.00;5113907;28;20056;-60
2022/10/24 11:24:41;;;;;;;1.98;1.25;;;;;;;24.54;32.87;96987.84;5114007;28;20054;-60
2022/10/24 11:27:14;;;;;;;1.60;1.10;;;;;;;24.71;32.16;96976.50;5114078;28;20044;-60
2022/10/24 11:29:45;;;;;;;2.15;1.52;;;;;;;24.83;32.01;96979.06;5113992;28;20104;-60
2022/10/24 11:32:20;;;;;;;1.85;1.20;;;;;;;24.76;31.61;96981.44;5113936;28;20139;-61
2022/10/24 11:34:51;;;;;;;4.45;2.00;;;;;;;24.83;31.98;96973.72;5113853;28;20401;-61
2022/10/24 11:37:24;;;;;;;2.90;1.70;;;;;;;24.82;31.57;96974.69;5113882;28;20047;-61
2022/10/24 11:39:57;;;;;;;3.88;1.30;;;;;;;24.80;31.67;96976.69;5113823;28;20446;-61
2022/10/24 11:42:31;;;;;;;2.25;1.20;;;;;;;24.69;31.54;96973.13;5113826;28;20090;-60
2022/10/24 11:45:05;;;;;;;2.00;1.30;;;;;;;24.63;31.48;96968.34;5113744;28;20091;-61
2022/10/24 11:47:54;;;;;;;3.28;1.73;;;;;;;24.51;31.83;96967.59;5113647;28;20086;-60
2022/10/24 11:50:27;;;;;;;4.63;1.40;;;;;;;24.47;32.29;96950.13;5113525;28;20090;-61
2022/10/24 11:53:00;;;;;;;1.50;1.40;;;;;;;24.57;32.68;96960.84;5113973;28;20052;-61